Arp, Texas
Current Conditions -  °F | °C
As of 9:55 AM on Friday 31 Oct 2014 (Local Time) from KRFI Reporting Station
Clear Clear  
Wind Chill: 16°   Ceiling: Unl
Heat Index: 16°   Visibility: 7mi
Dew Point:   Wind: 8mph
Humidity: 57%   Direction: 350°N
Pressure: 30.23"   Gusts: 18mph
Location:  32.23°N, 95.06°W
Report Text: KRFI 311455Z AUTO 35007G16KT 7SM CLR 16/07 A3023 RMK AO2 T01560072
Loading
Personal Weather Stations






























Interactive Weather Map
Tropical Storm Tracking
New forecast layout! Learn more

10-Day Weather Forecast

Advertisements
Track Severe Weather on mobile